Missoula, Montana
Current Conditions -  °F | °C
As of 12:53 AM on Saturday 20 Dec 2014 (Local Time) from KMSO Reporting Station
Moderate Fog Moderate Fog  
Wind Chill: -2°   Ceiling: 200
Heat Index: -2°   Visibility: 0.25mi
Dew Point: -2°   Wind: 3mph
Humidity: 100%   Direction: 170°S
Pressure: 30.02"   Gusts: NA
Location:  46.87°N, 113.99°W
Report Text: KMSO 200753Z AUTO 17003KT 1/4SM FZFG VV002 M02/M02 A3002 RMK AO2 SLP195 I1001 T10221022
Loading
Personal Weather Stations






























Interactive Weather Map New forecast layout! Learn more

10-Day Weather Forecast

Advertisements
Track Severe Weather on mobile